アルジェ の空港の天気 - METARとTAF

ウアリ・ブーメディアン空港 ( DAAG / ALG ) - アルジェリア アルジェ
飛行場実況気象(Metar)
観測時間11/27 09:00 CET (11/27 08:00 UTC)
風向・風速南 2m/s
視程10km以上
天気現象
少しの雲 雲底高度 700m
気温10℃
湿度87%
気圧1028hPa
METARDAAG 270800Z 18003KT 150V210 9999 FEW023 10/08 Q1028
過去の天気等 Google飛行場航空写真 Wunderground天気予報

過去48時間のMETAR

飛行場予報(TAF)
発表時間: 11/27 06:00 CET (11/27 05:00 UTC)
予報対象時間: 27日7時 CET ~ 28日7時 CET
風向・風速不定 1m/s
視程10km以上
少しの雲 雲底高度 700m
27日12時 CET ~ 27日14時 CET に徐々に
風向・風速北北東 5m/s
27日20時 CET ~ 27日22時 CET に徐々に
風向・風速不定 1m/s
TAF DAAG 270500Z 2706/2806 VRB02KT 9999 FEW023
BECMG 2711/2713 02010KT
BECMG 2719/2721 VRB02KT